sensor_id;sensor_type;location;lat;lon;timestamp;P1;durP1;ratioP1;P2;durP2;ratioP2
23608;SDS011;11982;50.810;4.442;2023-02-15T00:01:35;145.60;;;59.55;;
23608;SDS011;11982;50.810;4.442;2023-02-15T00:04:02;146.60;;;61.17;;
23608;SDS011;11982;50.810;4.442;2023-02-15T00:06:28;143.30;;;59.35;;
23608;SDS011;11982;50.810;4.442;2023-02-15T00:08:55;152.27;;;62.08;;
23608;SDS011;11982;50.810;4.442;2023-02-15T00:11:21;155.13;;;65.25;;
23608;SDS011;11982;50.810;4.442;2023-02-15T00:16:36;147.38;;;62.70;;
23608;SDS011;11982;50.810;4.442;2023-02-15T00:19:02;149.25;;;64.25;;
23608;SDS011;11982;50.810;4.442;2023-02-15T00:21:29;145.48;;;63.00;;
23608;SDS011;11982;50.810;4.442;2023-02-15T00:23:57;149.77;;;63.55;;
23608;SDS011;11982;50.810;4.442;2023-02-15T00:26:24;148.80;;;62.70;;
23608;SDS011;11982;50.810;4.442;2023-02-15T00:28:50;152.18;;;64.70;;
23608;SDS011;11982;50.810;4.442;2023-02-15T00:31:16;157.48;;;65.50;;
23608;SDS011;11982;50.810;4.442;2023-02-15T00:33:42;152.38;;;66.05;;
23608;SDS011;11982;50.810;4.442;2023-02-15T00:36:08;148.60;;;63.40;;
23608;SDS011;11982;50.810;4.442;2023-02-15T00:38:34;165.25;;;70.50;;
23608;SDS011;11982;50.810;4.442;2023-02-15T00:41:01;158.38;;;70.65;;
23608;SDS011;11982;50.810;4.442;2023-02-15T00:43:29;173.70;;;73.75;;
23608;SDS011;11982;50.810;4.442;2023-02-15T00:45:56;168.00;;;72.22;;
23608;SDS011;11982;50.810;4.442;2023-02-15T00:48:22;172.73;;;72.45;;
23608;SDS011;11982;50.810;4.442;2023-02-15T00:50:49;150.40;;;70.22;;
23608;SDS011;11982;50.810;4.442;2023-02-15T00:53:20;157.95;;;68.38;;
23608;SDS011;11982;50.810;4.442;2023-02-15T00:55:46;141.95;;;65.03;;
23608;SDS011;11982;50.810;4.442;2023-02-15T00:58:12;143.85;;;64.88;;
23608;SDS011;11982;50.810;4.442;2023-02-15T01:00:39;152.68;;;67.53;;
23608;SDS011;11982;50.810;4.442;2023-02-15T01:03:06;154.98;;;66.35;;
23608;SDS011;11982;50.810;4.442;2023-02-15T01:05:32;141.88;;;63.45;;
23608;SDS011;11982;50.810;4.442;2023-02-15T01:07:58;153.32;;;64.18;;
23608;SDS011;11982;50.810;4.442;2023-02-15T01:10:24;164.05;;;67.03;;
23608;SDS011;11982;50.810;4.442;2023-02-15T01:12:51;158.10;;;65.50;;
23608;SDS011;11982;50.810;4.442;2023-02-15T01:15:17;156.82;;;64.10;;
23608;SDS011;11982;50.810;4.442;2023-02-15T01:17:43;150.05;;;62.95;;
23608;SDS011;11982;50.810;4.442;2023-02-15T01:20:16;142.82;;;64.28;;
23608;SDS011;11982;50.810;4.442;2023-02-15T01:22:52;161.10;;;66.50;;
23608;SDS011;11982;50.810;4.442;2023-02-15T01:25:19;157.88;;;66.93;;
23608;SDS011;11982;50.810;4.442;2023-02-15T01:27:46;146.73;;;65.72;;
23608;SDS011;11982;50.810;4.442;2023-02-15T01:30:13;163.00;;;68.55;;
23608;SDS011;11982;50.810;4.442;2023-02-15T01:32:39;157.38;;;67.65;;
23608;SDS011;11982;50.810;4.442;2023-02-15T01:35:06;148.90;;;65.50;;
23608;SDS011;11982;50.810;4.442;2023-02-15T01:37:32;163.15;;;66.15;;
23608;SDS011;11982;50.810;4.442;2023-02-15T01:40:00;158.35;;;66.80;;
23608;SDS011;11982;50.810;4.442;2023-02-15T01:42:29;156.75;;;66.88;;
23608;SDS011;11982;50.810;4.442;2023-02-15T01:44:56;161.15;;;68.20;;
23608;SDS011;11982;50.810;4.442;2023-02-15T01:52:36;156.32;;;67.95;;
23608;SDS011;11982;50.810;4.442;2023-02-15T01:55:05;162.88;;;67.40;;
23608;SDS011;11982;50.810;4.442;2023-02-15T01:57:32;151.57;;;65.38;;
23608;SDS011;11982;50.810;4.442;2023-02-15T01:59:59;163.60;;;66.68;;
23608;SDS011;11982;50.810;4.442;2023-02-15T02:02:28;161.38;;;65.57;;
23608;SDS011;11982;50.810;4.442;2023-02-15T02:04:56;158.88;;;64.72;;
23608;SDS011;11982;50.810;4.442;2023-02-15T02:07:28;165.57;;;67.07;;
23608;SDS011;11982;50.810;4.442;2023-02-15T02:09:56;178.55;;;70.85;;
23608;SDS011;11982;50.810;4.442;2023-02-15T02:12:22;169.80;;;71.50;;
23608;SDS011;11982;50.810;4.442;2023-02-15T02:14:50;183.35;;;71.05;;
23608;SDS011;11982;50.810;4.442;2023-02-15T02:17:22;162.02;;;68.28;;
23608;SDS011;11982;50.810;4.442;2023-02-15T02:36:15;177.75;;;74.32;;
23608;SDS011;11982;50.810;4.442;2023-02-15T02:39:07;161.65;;;69.10;;
23608;SDS011;11982;50.810;4.442;2023-02-15T02:42:16;163.63;;;67.13;;
23608;SDS011;11982;50.810;4.442;2023-02-15T02:48:19;144.90;;;62.55;;
23608;SDS011;11982;50.810;4.442;2023-02-15T02:50:50;148.70;;;62.10;;
23608;SDS011;11982;50.810;4.442;2023-02-15T02:53:17;154.38;;;63.72;;
23608;SDS011;11982;50.810;4.442;2023-02-15T02:55:47;155.68;;;64.72;;
23608;SDS011;11982;50.810;4.442;2023-02-15T02:58:31;158.65;;;64.22;;
23608;SDS011;11982;50.810;4.442;2023-02-15T03:01:15;151.88;;;63.15;;
23608;SDS011;11982;50.810;4.442;2023-02-15T03:03:49;144.95;;;62.35;;
23608;SDS011;11982;50.810;4.442;2023-02-15T03:06:23;162.55;;;66.22;;
23608;SDS011;11982;50.810;4.442;2023-02-15T03:08:59;166.27;;;66.82;;
23608;SDS011;11982;50.810;4.442;2023-02-15T03:11:31;160.77;;;65.97;;
23608;SDS011;11982;50.810;4.442;2023-02-15T03:13:57;154.50;;;62.42;;
23608;SDS011;11982;50.810;4.442;2023-02-15T03:16:23;157.82;;;65.32;;
23608;SDS011;11982;50.810;4.442;2023-02-15T03:19:01;158.48;;;66.28;;
23608;SDS011;11982;50.810;4.442;2023-02-15T03:24:23;155.18;;;64.50;;
23608;SDS011;11982;50.810;4.442;2023-02-15T03:29:23;152.98;;;58.30;;
23608;SDS011;11982;50.810;4.442;2023-02-15T03:31:54;146.02;;;63.17;;
23608;SDS011;11982;50.810;4.442;2023-02-15T03:34:25;150.47;;;64.10;;
23608;SDS011;11982;50.810;4.442;2023-02-15T03:37:05;156.30;;;64.63;;
23608;SDS011;11982;50.810;4.442;2023-02-15T03:39:55;163.52;;;65.97;;
23608;SDS011;11982;50.810;4.442;2023-02-15T03:42:45;152.45;;;62.83;;
23608;SDS011;11982;50.810;4.442;2023-02-15T03:45:15;157.75;;;65.88;;
23608;SDS011;11982;50.810;4.442;2023-02-15T03:47:47;154.93;;;64.13;;
23608;SDS011;11982;50.810;4.442;2023-02-15T03:50:18;153.15;;;64.50;;
23608;SDS011;11982;50.810;4.442;2023-02-15T03:53:17;162.77;;;63.75;;
23608;SDS011;11982;50.810;4.442;2023-02-15T03:55:46;148.38;;;64.30;;
23608;SDS011;11982;50.810;4.442;2023-02-15T03:58:13;155.30;;;62.67;;
23608;SDS011;11982;50.810;4.442;2023-02-15T04:00:58;146.60;;;58.60;;
23608;SDS011;11982;50.810;4.442;2023-02-15T04:03:49;152.07;;;63.72;;
23608;SDS011;11982;50.810;4.442;2023-02-15T04:06:21;141.68;;;61.25;;
23608;SDS011;11982;50.810;4.442;2023-02-15T04:08:46;142.32;;;60.05;;
23608;SDS011;11982;50.810;4.442;2023-02-15T04:11:30;150.82;;;60.47;;
23608;SDS011;11982;50.810;4.442;2023-02-15T04:13:56;137.45;;;60.78;;
23608;SDS011;11982;50.810;4.442;2023-02-15T04:16:23;143.07;;;59.10;;
23608;SDS011;11982;50.810;4.442;2023-02-15T04:18:49;147.90;;;59.67;;
23608;SDS011;11982;50.810;4.442;2023-02-15T04:21:33;139.50;;;59.75;;
23608;SDS011;11982;50.810;4.442;2023-02-15T04:24:17;148.35;;;60.75;;
23608;SDS011;11982;50.810;4.442;2023-02-15T04:27:02;141.73;;;59.88;;
23608;SDS011;11982;50.810;4.442;2023-02-15T04:29:29;147.48;;;61.55;;
23608;SDS011;11982;50.810;4.442;2023-02-15T04:31:57;153.45;;;60.17;;
23608;SDS011;11982;50.810;4.442;2023-02-15T04:34:24;144.80;;;58.25;;
23608;SDS011;11982;50.810;4.442;2023-02-15T04:36:50;149.82;;;60.55;;
23608;SDS011;11982;50.810;4.442;2023-02-15T04:39:16;150.55;;;62.63;;
23608;SDS011;11982;50.810;4.442;2023-02-15T04:41:43;147.93;;;60.78;;
23608;SDS011;11982;50.810;4.442;2023-02-15T04:44:09;143.10;;;59.30;;
23608;SDS011;11982;50.810;4.442;2023-02-15T04:46:35;143.95;;;59.53;;
23608;SDS011;11982;50.810;4.442;2023-02-15T04:49:01;145.38;;;61.33;;
23608;SDS011;11982;50.810;4.442;2023-02-15T04:51:27;155.32;;;61.83;;
23608;SDS011;11982;50.810;4.442;2023-02-15T04:53:53;143.07;;;59.33;;
23608;SDS011;11982;50.810;4.442;2023-02-15T04:56:20;148.82;;;59.10;;
23608;SDS011;11982;50.810;4.442;2023-02-15T04:58:45;154.55;;;61.28;;
23608;SDS011;11982;50.810;4.442;2023-02-15T05:01:11;153.55;;;61.35;;
23608;SDS011;11982;50.810;4.442;2023-02-15T05:03:37;144.00;;;61.03;;
23608;SDS011;11982;50.810;4.442;2023-02-15T05:06:03;146.07;;;59.47;;
23608;SDS011;11982;50.810;4.442;2023-02-15T05:08:30;146.23;;;60.05;;
23608;SDS011;11982;50.810;4.442;2023-02-15T05:10:56;155.95;;;60.13;;
23608;SDS011;11982;50.810;4.442;2023-02-15T05:13:21;144.85;;;60.85;;
23608;SDS011;11982;50.810;4.442;2023-02-15T05:15:48;136.30;;;58.13;;
23608;SDS011;11982;50.810;4.442;2023-02-15T05:18:15;146.60;;;58.25;;
23608;SDS011;11982;50.810;4.442;2023-02-15T05:20:41;144.27;;;57.75;;
23608;SDS011;11982;50.810;4.442;2023-02-15T05:23:07;147.93;;;58.55;;
23608;SDS011;11982;50.810;4.442;2023-02-15T05:25:33;139.80;;;59.40;;
23608;SDS011;11982;50.810;4.442;2023-02-15T05:28:17;144.38;;;58.58;;
23608;SDS011;11982;50.810;4.442;2023-02-15T05:30:48;152.73;;;59.97;;
23608;SDS011;11982;50.810;4.442;2023-02-15T05:33:16;149.38;;;59.40;;
23608;SDS011;11982;50.810;4.442;2023-02-15T05:35:41;141.68;;;59.67;;
23608;SDS011;11982;50.810;4.442;2023-02-15T05:38:07;135.75;;;59.15;;
23608;SDS011;11982;50.810;4.442;2023-02-15T05:40:33;147.73;;;59.80;;
23608;SDS011;11982;50.810;4.442;2023-02-15T05:42:58;148.27;;;60.85;;
23608;SDS011;11982;50.810;4.442;2023-02-15T05:45:24;143.15;;;58.33;;
23608;SDS011;11982;50.810;4.442;2023-02-15T05:47:50;149.35;;;59.13;;
23608;SDS011;11982;50.810;4.442;2023-02-15T05:50:16;142.60;;;58.85;;
23608;SDS011;11982;50.810;4.442;2023-02-15T05:52:42;160.68;;;61.08;;
23608;SDS011;11982;50.810;4.442;2023-02-15T05:55:07;159.15;;;61.78;;
23608;SDS011;11982;50.810;4.442;2023-02-15T05:57:34;145.40;;;61.28;;
23608;SDS011;11982;50.810;4.442;2023-02-15T06:00:01;155.85;;;61.85;;
23608;SDS011;11982;50.810;4.442;2023-02-15T06:02:29;152.48;;;60.83;;
23608;SDS011;11982;50.810;4.442;2023-02-15T06:04:58;160.88;;;60.35;;
23608;SDS011;11982;50.810;4.442;2023-02-15T06:07:24;147.93;;;61.15;;
23608;SDS011;11982;50.810;4.442;2023-02-15T06:09:49;148.90;;;58.70;;
23608;SDS011;11982;50.810;4.442;2023-02-15T06:12:15;150.50;;;61.88;;
23608;SDS011;11982;50.810;4.442;2023-02-15T06:14:41;142.73;;;61.30;;
23608;SDS011;11982;50.810;4.442;2023-02-15T06:17:06;141.68;;;59.50;;
23608;SDS011;11982;50.810;4.442;2023-02-15T06:19:32;148.63;;;60.88;;
23608;SDS011;11982;50.810;4.442;2023-02-15T06:21:58;138.13;;;60.47;;
23608;SDS011;11982;50.810;4.442;2023-02-15T06:24:24;152.55;;;61.10;;
23608;SDS011;11982;50.810;4.442;2023-02-15T06:26:49;148.15;;;58.25;;
23608;SDS011;11982;50.810;4.442;2023-02-15T06:29:15;146.95;;;59.03;;
23608;SDS011;11982;50.810;4.442;2023-02-15T06:31:41;146.48;;;59.20;;
23608;SDS011;11982;50.810;4.442;2023-02-15T06:34:06;154.73;;;60.85;;
23608;SDS011;11982;50.810;4.442;2023-02-15T06:36:32;147.75;;;60.30;;
23608;SDS011;11982;50.810;4.442;2023-02-15T06:38:58;140.25;;;59.17;;
23608;SDS011;11982;50.810;4.442;2023-02-15T06:41:23;131.82;;;57.33;;
23608;SDS011;11982;50.810;4.442;2023-02-15T06:43:49;139.27;;;57.60;;
23608;SDS011;11982;50.810;4.442;2023-02-15T06:46:15;140.55;;;56.75;;
23608;SDS011;11982;50.810;4.442;2023-02-15T06:48:41;132.45;;;56.30;;
23608;SDS011;11982;50.810;4.442;2023-02-15T06:51:06;129.50;;;55.53;;
23608;SDS011;11982;50.810;4.442;2023-02-15T06:53:32;129.30;;;57.08;;
23608;SDS011;11982;50.810;4.442;2023-02-15T06:56:06;138.73;;;57.13;;
23608;SDS011;11982;50.810;4.442;2023-02-15T06:58:34;141.35;;;57.72;;
23608;SDS011;11982;50.810;4.442;2023-02-15T07:01:03;135.40;;;55.53;;
23608;SDS011;11982;50.810;4.442;2023-02-15T07:03:30;138.43;;;56.47;;
23608;SDS011;11982;50.810;4.442;2023-02-15T07:05:57;135.85;;;56.85;;
23608;SDS011;11982;50.810;4.442;2023-02-15T07:08:24;141.02;;;56.90;;
23608;SDS011;11982;50.810;4.442;2023-02-15T07:10:51;178.43;;;82.20;;
23608;SDS011;11982;50.810;4.442;2023-02-15T07:13:18;147.93;;;68.00;;
23608;SDS011;11982;50.810;4.442;2023-02-15T07:15:44;140.63;;;61.20;;
23608;SDS011;11982;50.810;4.442;2023-02-15T07:18:13;145.10;;;59.03;;
23608;SDS011;11982;50.810;4.442;2023-02-15T07:20:39;145.13;;;60.53;;
23608;SDS011;11982;50.810;4.442;2023-02-15T07:23:07;156.43;;;62.22;;
23608;SDS011;11982;50.810;4.442;2023-02-15T07:25:33;148.45;;;63.58;;
23608;SDS011;11982;50.810;4.442;2023-02-15T07:28:01;142.75;;;60.58;;
23608;SDS011;11982;50.810;4.442;2023-02-15T07:30:29;146.60;;;61.13;;
23608;SDS011;11982;50.810;4.442;2023-02-15T07:32:55;137.65;;;60.13;;
23608;SDS011;11982;50.810;4.442;2023-02-15T07:36:13;142.75;;;58.72;;
23608;SDS011;11982;50.810;4.442;2023-02-15T07:38:35;158.38;;;62.90;;
23608;SDS011;11982;50.810;4.442;2023-02-15T07:41:06;139.02;;;59.35;;
23608;SDS011;11982;50.810;4.442;2023-02-15T07:43:37;147.65;;;60.33;;
23608;SDS011;11982;50.810;4.442;2023-02-15T07:46:13;145.38;;;61.35;;
23608;SDS011;11982;50.810;4.442;2023-02-15T07:48:41;144.80;;;60.95;;
23608;SDS011;11982;50.810;4.442;2023-02-15T07:51:08;136.38;;;59.03;;
23608;SDS011;11982;50.810;4.442;2023-02-15T07:53:35;136.43;;;58.10;;
23608;SDS011;11982;50.810;4.442;2023-02-15T07:56:02;127.30;;;58.83;;
23608;SDS011;11982;50.810;4.442;2023-02-15T07:58:31;136.85;;;58.78;;
23608;SDS011;11982;50.810;4.442;2023-02-15T08:01:15;138.95;;;60.17;;
23608;SDS011;11982;50.810;4.442;2023-02-15T08:03:41;139.75;;;61.40;;
23608;SDS011;11982;50.810;4.442;2023-02-15T08:06:07;133.48;;;56.75;;
23608;SDS011;11982;50.810;4.442;2023-02-15T08:08:33;137.52;;;59.50;;
23608;SDS011;11982;50.810;4.442;2023-02-15T08:11:19;141.75;;;58.58;;
23608;SDS011;11982;50.810;4.442;2023-02-15T08:16:28;145.27;;;63.05;;
23608;SDS011;11982;50.810;4.442;2023-02-15T08:18:55;141.00;;;59.20;;
23608;SDS011;11982;50.810;4.442;2023-02-15T08:21:22;138.55;;;58.20;;
23608;SDS011;11982;50.810;4.442;2023-02-15T08:23:50;134.85;;;57.63;;
23608;SDS011;11982;50.810;4.442;2023-02-15T08:26:16;141.18;;;61.15;;
23608;SDS011;11982;50.810;4.442;2023-02-15T08:28:42;142.50;;;61.40;;
23608;SDS011;11982;50.810;4.442;2023-02-15T08:31:09;144.40;;;61.63;;
23608;SDS011;11982;50.810;4.442;2023-02-15T08:33:37;146.82;;;61.83;;
23608;SDS011;11982;50.810;4.442;2023-02-15T08:36:05;139.43;;;60.13;;
23608;SDS011;11982;50.810;4.442;2023-02-15T08:38:33;134.57;;;59.05;;
23608;SDS011;11982;50.810;4.442;2023-02-15T08:43:56;131.95;;;57.47;;
23608;SDS011;11982;50.810;4.442;2023-02-15T08:46:24;117.18;;;57.08;;
23608;SDS011;11982;50.810;4.442;2023-02-15T08:48:51;123.72;;;57.08;;
23608;SDS011;11982;50.810;4.442;2023-02-15T08:51:19;119.80;;;54.17;;
23608;SDS011;11982;50.810;4.442;2023-02-15T08:53:50;119.80;;;54.22;;
23608;SDS011;11982;50.810;4.442;2023-02-15T08:56:18;113.47;;;53.38;;
23608;SDS011;11982;50.810;4.442;2023-02-15T08:58:46;116.38;;;53.42;;
23608;SDS011;11982;50.810;4.442;2023-02-15T09:01:15;114.07;;;51.33;;
23608;SDS011;11982;50.810;4.442;2023-02-15T09:03:43;93.60;;;46.70;;
23608;SDS011;11982;50.810;4.442;2023-02-15T09:06:10;105.30;;;47.17;;
23608;SDS011;11982;50.810;4.442;2023-02-15T09:08:37;89.20;;;42.45;;
23608;SDS011;11982;50.810;4.442;2023-02-15T09:13:32;80.28;;;36.67;;
23608;SDS011;11982;50.810;4.442;2023-02-15T09:16:02;73.90;;;36.33;;
23608;SDS011;11982;50.810;4.442;2023-02-15T09:18:30;75.60;;;35.72;;
23608;SDS011;11982;50.810;4.442;2023-02-15T09:21:03;75.90;;;34.85;;
23608;SDS011;11982;50.810;4.442;2023-02-15T09:23:40;73.25;;;33.33;;
23608;SDS011;11982;50.810;4.442;2023-02-15T09:26:08;71.68;;;33.40;;
23608;SDS011;11982;50.810;4.442;2023-02-15T09:28:39;67.03;;;32.17;;
23608;SDS011;11982;50.810;4.442;2023-02-15T09:31:12;71.13;;;32.00;;
23608;SDS011;11982;50.810;4.442;2023-02-15T09:36:12;73.70;;;31.98;;
23608;SDS011;11982;50.810;4.442;2023-02-15T09:55:09;62.30;;;28.60;;
23608;SDS011;11982;50.810;4.442;2023-02-15T10:17:31;55.17;;;27.02;;
23608;SDS011;11982;50.810;4.442;2023-02-15T10:34:01;60.80;;;28.98;;
23608;SDS011;11982;50.810;4.442;2023-02-15T10:36:39;60.28;;;28.63;;
23608;SDS011;11982;50.810;4.442;2023-02-15T10:39:26;58.35;;;28.90;;
23608;SDS011;11982;50.810;4.442;2023-02-15T10:42:31;59.05;;;29.17;;
23608;SDS011;11982;50.810;4.442;2023-02-15T10:51:00;59.38;;;29.33;;
23608;SDS011;11982;50.810;4.442;2023-02-15T11:02:01;55.75;;;27.40;;
23608;SDS011;11982;50.810;4.442;2023-02-15T11:04:46;58.13;;;27.92;;
23608;SDS011;11982;50.810;4.442;2023-02-15T11:07:40;56.05;;;28.20;;
23608;SDS011;11982;50.810;4.442;2023-02-15T11:13:13;57.88;;;28.77;;
23608;SDS011;11982;50.810;4.442;2023-02-15T11:16:04;57.05;;;28.35;;
23608;SDS011;11982;50.810;4.442;2023-02-15T11:18:39;59.07;;;30.10;;
23608;SDS011;11982;50.810;4.442;2023-02-15T11:21:31;55.97;;;28.27;;
23608;SDS011;11982;50.810;4.442;2023-02-15T11:24:13;56.60;;;28.85;;
23608;SDS011;11982;50.810;4.442;2023-02-15T11:32:13;59.38;;;28.40;;
23608;SDS011;11982;50.810;4.442;2023-02-15T11:37:31;56.42;;;28.35;;
23608;SDS011;11982;50.810;4.442;2023-02-15T11:40:02;53.58;;;28.65;;
23608;SDS011;11982;50.810;4.442;2023-02-15T11:42:37;58.83;;;28.92;;
23608;SDS011;11982;50.810;4.442;2023-02-15T11:47:59;62.63;;;30.73;;
23608;SDS011;11982;50.810;4.442;2023-02-15T11:50:27;55.72;;;28.83;;
23608;SDS011;11982;50.810;4.442;2023-02-15T11:53:04;66.10;;;30.05;;
23608;SDS011;11982;50.810;4.442;2023-02-15T11:55:36;54.83;;;29.27;;
23608;SDS011;11982;50.810;4.442;2023-02-15T12:00:54;57.53;;;29.60;;
23608;SDS011;11982;50.810;4.442;2023-02-15T12:03:50;56.42;;;29.83;;
23608;SDS011;11982;50.810;4.442;2023-02-15T12:06:38;60.67;;;31.63;;
23608;SDS011;11982;50.810;4.442;2023-02-15T12:09:15;60.22;;;31.48;;
23608;SDS011;11982;50.810;4.442;2023-02-15T12:12:19;56.20;;;29.40;;
23608;SDS011;11982;50.810;4.442;2023-02-15T12:15:01;61.15;;;30.55;;
23608;SDS011;11982;50.810;4.442;2023-02-15T12:17:35;57.92;;;30.45;;
23608;SDS011;11982;50.810;4.442;2023-02-15T12:22:52;64.78;;;32.10;;
23608;SDS011;11982;50.810;4.442;2023-02-15T12:27:48;62.85;;;32.00;;
23608;SDS011;11982;50.810;4.442;2023-02-15T12:36:09;59.40;;;32.03;;
23608;SDS011;11982;50.810;4.442;2023-02-15T12:38:36;61.08;;;32.10;;
23608;SDS011;11982;50.810;4.442;2023-02-15T12:41:04;60.22;;;32.45;;
23608;SDS011;11982;50.810;4.442;2023-02-15T12:43:46;61.53;;;32.08;;
23608;SDS011;11982;50.810;4.442;2023-02-15T12:46:24;60.28;;;32.67;;
23608;SDS011;11982;50.810;4.442;2023-02-15T12:51:45;61.53;;;33.00;;
23608;SDS011;11982;50.810;4.442;2023-02-15T12:56:47;60.22;;;33.33;;
23608;SDS011;11982;50.810;4.442;2023-02-15T12:59:14;65.60;;;34.67;;
23608;SDS011;11982;50.810;4.442;2023-02-15T13:01:45;59.95;;;32.92;;
23608;SDS011;11982;50.810;4.442;2023-02-15T13:04:25;62.90;;;35.13;;
23608;SDS011;11982;50.810;4.442;2023-02-15T13:06:54;67.35;;;34.92;;
23608;SDS011;11982;50.810;4.442;2023-02-15T13:11:56;59.25;;;32.20;;
23608;SDS011;11982;50.810;4.442;2023-02-15T13:14:33;64.45;;;34.10;;
23608;SDS011;11982;50.810;4.442;2023-02-15T13:17:01;76.35;;;33.30;;
23608;SDS011;11982;50.810;4.442;2023-02-15T13:19:36;62.30;;;33.97;;
23608;SDS011;11982;50.810;4.442;2023-02-15T13:22:33;67.25;;;35.50;;
23608;SDS011;11982;50.810;4.442;2023-02-15T13:27:46;79.35;;;36.67;;
23608;SDS011;11982;50.810;4.442;2023-02-15T13:32:48;66.28;;;34.78;;
23608;SDS011;11982;50.810;4.442;2023-02-15T13:35:17;71.40;;;37.22;;
23608;SDS011;11982;50.810;4.442;2023-02-15T13:40:39;74.68;;;36.75;;
23608;SDS011;11982;50.810;4.442;2023-02-15T14:18:51;70.35;;;37.22;;
23608;SDS011;11982;50.810;4.442;2023-02-15T14:21:47;76.38;;;36.80;;
23608;SDS011;11982;50.810;4.442;2023-02-15T14:24:30;67.40;;;35.97;;
23608;SDS011;11982;50.810;4.442;2023-02-15T14:32:34;67.05;;;37.65;;
23608;SDS011;11982;50.810;4.442;2023-02-15T14:35:06;63.42;;;35.38;;
23608;SDS011;11982;50.810;4.442;2023-02-15T14:40:19;68.70;;;35.65;;
23608;SDS011;11982;50.810;4.442;2023-02-15T14:46:12;67.38;;;35.78;;
23608;SDS011;11982;50.810;4.442;2023-02-15T14:48:52;70.60;;;35.60;;
23608;SDS011;11982;50.810;4.442;2023-02-15T14:56:46;72.70;;;38.20;;
23608;SDS011;11982;50.810;4.442;2023-02-15T15:05:34;70.72;;;37.05;;
23608;SDS011;11982;50.810;4.442;2023-02-15T15:07:42;69.97;;;36.38;;
23608;SDS011;11982;50.810;4.442;2023-02-15T15:15:10;69.63;;;38.20;;
23608;SDS011;11982;50.810;4.442;2023-02-15T15:25:09;72.25;;;37.75;;
23608;SDS011;11982;50.810;4.442;2023-02-15T15:27:46;74.35;;;37.95;;
23608;SDS011;11982;50.810;4.442;2023-02-15T15:38:29;73.93;;;38.67;;
23608;SDS011;11982;50.810;4.442;2023-02-15T15:47:43;83.15;;;42.35;;
23608;SDS011;11982;50.810;4.442;2023-02-15T15:50:16;81.13;;;41.13;;
23608;SDS011;11982;50.810;4.442;2023-02-15T15:52:45;77.57;;;41.08;;
23608;SDS011;11982;50.810;4.442;2023-02-15T15:55:18;79.50;;;43.53;;
23608;SDS011;11982;50.810;4.442;2023-02-15T15:57:49;84.70;;;43.63;;
23608;SDS011;11982;50.810;4.442;2023-02-15T16:03:00;91.20;;;45.47;;
23608;SDS011;11982;50.810;4.442;2023-02-15T16:05:26;81.20;;;43.40;;
23608;SDS011;11982;50.810;4.442;2023-02-15T16:07:51;79.55;;;43.38;;
23608;SDS011;11982;50.810;4.442;2023-02-15T16:10:24;89.80;;;45.55;;
23608;SDS011;11982;50.810;4.442;2023-02-15T16:12:51;81.63;;;43.85;;
23608;SDS011;11982;50.810;4.442;2023-02-15T16:15:24;88.40;;;42.95;;
23608;SDS011;11982;50.810;4.442;2023-02-15T16:17:56;76.65;;;43.00;;
23608;SDS011;11982;50.810;4.442;2023-02-15T16:20:24;83.70;;;45.15;;
23608;SDS011;11982;50.810;4.442;2023-02-15T16:28:48;77.03;;;42.25;;
23608;SDS011;11982;50.810;4.442;2023-02-15T16:31:16;82.35;;;43.35;;
23608;SDS011;11982;50.810;4.442;2023-02-15T16:33:43;85.60;;;44.42;;
23608;SDS011;11982;50.810;4.442;2023-02-15T16:36:11;91.82;;;45.28;;
23608;SDS011;11982;50.810;4.442;2023-02-15T16:41:11;90.43;;;45.85;;
23608;SDS011;11982;50.810;4.442;2023-02-15T16:43:40;107.95;;;62.50;;
23608;SDS011;11982;50.810;4.442;2023-02-15T16:46:11;102.70;;;57.70;;
23608;SDS011;11982;50.810;4.442;2023-02-15T16:48:45;100.20;;;49.85;;
23608;SDS011;11982;50.810;4.442;2023-02-15T16:51:21;87.88;;;48.85;;
23608;SDS011;11982;50.810;4.442;2023-02-15T16:53:52;83.57;;;45.00;;
23608;SDS011;11982;50.810;4.442;2023-02-15T16:56:23;88.07;;;46.13;;
23608;SDS011;11982;50.810;4.442;2023-02-15T16:58:51;96.60;;;46.40;;
23608;SDS011;11982;50.810;4.442;2023-02-15T17:01:20;96.75;;;47.67;;
23608;SDS011;11982;50.810;4.442;2023-02-15T17:03:49;93.97;;;50.30;;
23608;SDS011;11982;50.810;4.442;2023-02-15T17:06:20;100.68;;;52.25;;
23608;SDS011;11982;50.810;4.442;2023-02-15T17:08:48;97.43;;;50.03;;
23608;SDS011;11982;50.810;4.442;2023-02-15T17:11:15;94.88;;;49.35;;
23608;SDS011;11982;50.810;4.442;2023-02-15T17:16:28;90.75;;;48.25;;
23608;SDS011;11982;50.810;4.442;2023-02-15T17:19:00;100.05;;;48.72;;
23608;SDS011;11982;50.810;4.442;2023-02-15T17:21:30;98.60;;;46.85;;
23608;SDS011;11982;50.810;4.442;2023-02-15T17:23:59;97.50;;;49.70;;
23608;SDS011;11982;50.810;4.442;2023-02-15T17:26:30;97.78;;;50.35;;
23608;SDS011;11982;50.810;4.442;2023-02-15T17:31:53;103.53;;;49.83;;
23608;SDS011;11982;50.810;4.442;2023-02-15T17:37:26;96.45;;;50.55;;
23608;SDS011;11982;50.810;4.442;2023-02-15T17:39:54;102.88;;;50.33;;
23608;SDS011;11982;50.810;4.442;2023-02-15T17:42:20;107.88;;;57.10;;
23608;SDS011;11982;50.810;4.442;2023-02-15T17:44:47;99.55;;;48.95;;
23608;SDS011;11982;50.810;4.442;2023-02-15T17:47:17;103.80;;;52.45;;
23608;SDS011;11982;50.810;4.442;2023-02-15T17:49:45;93.70;;;47.60;;
23608;SDS011;11982;50.810;4.442;2023-02-15T17:52:14;88.75;;;47.15;;
23608;SDS011;11982;50.810;4.442;2023-02-15T17:54:40;89.80;;;47.50;;
23608;SDS011;11982;50.810;4.442;2023-02-15T17:57:25;88.05;;;45.63;;
23608;SDS011;11982;50.810;4.442;2023-02-15T17:59:52;88.40;;;45.80;;
23608;SDS011;11982;50.810;4.442;2023-02-15T18:02:37;88.03;;;46.03;;
23608;SDS011;11982;50.810;4.442;2023-02-15T18:05:21;91.63;;;47.30;;
23608;SDS011;11982;50.810;4.442;2023-02-15T18:08:16;96.55;;;47.60;;
23608;SDS011;11982;50.810;4.442;2023-02-15T18:11:05;92.65;;;48.15;;
23608;SDS011;11982;50.810;4.442;2023-02-15T18:13:49;95.07;;;48.07;;
23608;SDS011;11982;50.810;4.442;2023-02-15T18:16:16;96.43;;;48.83;;
23608;SDS011;11982;50.810;4.442;2023-02-15T18:18:48;93.00;;;47.97;;
23608;SDS011;11982;50.810;4.442;2023-02-15T18:21:14;97.38;;;49.85;;
23608;SDS011;11982;50.810;4.442;2023-02-15T18:23:40;98.43;;;48.13;;
23608;SDS011;11982;50.810;4.442;2023-02-15T18:26:08;96.18;;;49.08;;
23608;SDS011;11982;50.810;4.442;2023-02-15T18:31:06;97.35;;;49.03;;
23608;SDS011;11982;50.810;4.442;2023-02-15T18:34:05;98.55;;;50.58;;
23608;SDS011;11982;50.810;4.442;2023-02-15T18:36:26;102.00;;;50.28;;
23608;SDS011;11982;50.810;4.442;2023-02-15T18:38:55;96.97;;;51.45;;
23608;SDS011;11982;50.810;4.442;2023-02-15T18:41:21;103.63;;;51.88;;
23608;SDS011;11982;50.810;4.442;2023-02-15T18:43:48;104.90;;;54.60;;
23608;SDS011;11982;50.810;4.442;2023-02-15T18:46:15;98.10;;;52.35;;
23608;SDS011;11982;50.810;4.442;2023-02-15T18:48:41;97.10;;;50.85;;
23608;SDS011;11982;50.810;4.442;2023-02-15T18:51:17;102.15;;;51.70;;
23608;SDS011;11982;50.810;4.442;2023-02-15T18:53:46;100.55;;;52.05;;
23608;SDS011;11982;50.810;4.442;2023-02-15T18:56:15;101.90;;;50.65;;